• Join FlightAware (Why Join?)
  • Login
  • US Flag 
01:40AM EDT


 

Airport Tracker/Info


-or-


 

Live Flight TrackerFlight Track Log ✈ FFT268 ✈ 15-Jun-2013 ✈ KSNA - KDEN

Flight Track Log - Related Links

Times and Time Zones

All times are in EDT time to prevent confusion due to time zone crossing. See the FFT268 flight status page for this flight to view local times or setup timezone preferences in your user account.

Time Position Orientation Groundspeed Altitude Reporting Facility
EDT Latitude Longitude Course Direction KTS MPH feet Rate Location/Type
10:17AM 33.6500 -117.8833 90° East 133 153 1,600  Level Los Angeles Center
10:18AM 33.6131 -117.8931 192° South 134 154 3,400 1,500 Climbing Los Angeles Center
10:19AM 33.5619 -117.8917 179° South 180 207 4,700 1,560 Climbing Los Angeles Center
10:20AM 33.5517 -117.8117 99° East 259 298 6,600 2,160 Climbing Los Angeles Center
10:21AM 33.5614 -117.7142 83° East 289 333 9,600 2,400 Climbing Los Angeles Center
10:22AM 33.5833 -117.3823 90° East  Level FlightAware Approximate
10:22AM 33.5736 -117.5864 83° East 324 373 12,100  Level Los Angeles Center
10:23AM 33.5858 -117.4456 84° East 354 407 14,900 2,400 Climbing Los Angeles Center
10:24AM 33.5894 -117.3219 88° East 371 427 17,100 1,800 Climbing Los Angeles Center
10:25AM 33.5939 -117.1925 88° East 387 445 19,000 1,920 Climbing Los Angeles Center
10:26AM 33.5994 -117.0292 88° East 409 471 21,500 1,920 Climbing Los Angeles Center
10:27AM 33.6053 -116.8894 87° East 417 480 23,000 1,020 Climbing Los Angeles Center
10:28AM 33.6106 -116.7117 88° East 470 541 23,600 1,680 Climbing Los Angeles Center
10:29AM 33.6356 -116.5611 79° East 461 531 26,500 2,040 Climbing Los Angeles Center
10:30AM 33.7075 -116.4319 56° Northeast 464 534 27,900 1,260 Climbing Los Angeles Center
10:31AM 33.7814 -116.2994 56° Northeast 474 545 29,100 1,020 Climbing Los Angeles Center
10:32AM 33.8572 -116.1606 57° Northeast 490 564 30,100 1,020 Climbing Los Angeles Center
10:33AM 33.9344 -116.0192 57° Northeast 503 579 31,300 1,140 Climbing Los Angeles Center
10:34AM 33.9969 -115.9056 56° Northeast 506 582 32,500 1,260 Climbing Los Angeles Center
10:35AM 34.0903 -115.7350 57° Northeast 507 583 34,000 1,500 Climbing Los Angeles Center
10:36AM 34.1825 -115.5622 57° Northeast 509 586 35,600 1,200 Climbing Los Angeles Center
10:37AM 34.2600 -115.4236 56° Northeast 503 579 36,500 960 Climbing Los Angeles Center
10:38AM 34.3353 -115.2814 57° Northeast 502 578 37,600 840 Climbing Los Angeles Center
10:39AM 34.4114 -115.1417 57° Northeast 499 574 38,300 600 Climbing Los Angeles Center
10:41AM 34.4850 -114.9981 58° Northeast 500 575 38,900 300 Climbing Los Angeles Center
10:42AM 34.5617 -114.8589 56° Northeast 498 573 39,000  Climbing Los Angeles Center
10:43AM 34.6367 -114.7192 57° Northeast 495 570 39,000  Level Los Angeles Center
10:44AM 34.7431 -114.5183 57° Northeast 502 578 39,000  Level Los Angeles Center
10:45AM 34.8114 -114.3753 60° Northeast 496 571 39,000  Level Los Angeles Center
10:46AM 34.8742 -114.2289 62° Northeast 491 565 39,000  Level Los Angeles Center
10:47AM 34.9406 -114.0806 61° Northeast 496 571 39,000  Level Los Angeles Center
10:48AM 35.0044 -113.9336 62° Northeast 494 568 39,000  Level Los Angeles Center
10:49AM 35.0753 -113.7700 62° Northeast 493 567 39,000  Level Los Angeles Center
10:50AM 35.1389 -113.6222 62° Northeast 494 568 39,000  Level Los Angeles Center
10:51AM 35.2036 -113.4731 62° Northeast 497 572 39,000  Level Los Angeles Center
10:52AM 35.2672 -113.3250 62° Northeast 495 570 39,000  Level Los Angeles Center
10:53AM 35.3367 -113.1617 62° Northeast 494 568 39,000  Level Los Angeles Center
10:54AM 35.4014 -113.0111 62° Northeast 498 573 39,000  Level Los Angeles Center
10:55AM 35.4597 -112.8736 62° Northeast 503 579 39,000  Level Los Angeles Center
10:56AM 35.5458 -112.7019 58° Northeast 494 568 39,000  Level Los Angeles Center
10:57AM 35.6178 -112.5864 53° Northeast 494 568 39,000  Level Los Angeles Center
10:58AM 35.7003 -112.4503 53° Northeast 498 573 39,000  Level Los Angeles Center
10:59AM 35.7986 -112.2883 53° Northeast 496 571 39,000  Level Los Angeles Center
11:00AM 35.8800 -112.1536 53° Northeast 494 568 39,000  Level Los Angeles Center
11:01AM 35.9608 -112.0186 53° Northeast 493 567 39,000  Level Los Angeles Center
11:02AM 36.0381 -111.8900 53° Northeast 495 570 39,000  Level Los Angeles Center
11:03AM 36.1353 -111.7275 53° Northeast 493 567 39,000  Level Los Angeles Center
11:04AM 36.2156 -111.5917 54° Northeast 490 564 39,000  Level Los Angeles Center
11:05AM 36.2800 -111.4842 53° Northeast 491 565 39,000  Level Denver Center
11:06AM 36.3778 -111.3183 54° Northeast 497 572 39,000  Level Denver Center
11:07AM 36.4586 -111.1806 54° Northeast 496 571 39,000  Level Denver Center
11:08AM 36.5389 -111.0428 54° Northeast 495 570 39,000  Level Denver Center
11:09AM 36.6206 -110.9042 54° Northeast 496 571 39,000  Level Denver Center
11:10AM 36.7006 -110.7675 54° Northeast 494 568 39,000  Level Denver Center
11:12AM 36.7947 -110.6025 54° Northeast 492 566 39,000  Level Denver Center
11:13AM 36.8736 -110.4644 54° Northeast 492 566 39,000  Level Denver Center
11:14AM 36.9536 -110.3267 54° Northeast 492 566 39,000  Level Denver Center
11:15AM 37.0319 -110.1864 55° Northeast 493 567 39,000  Level Denver Center
11:16AM 37.1067 -110.0561 54° Northeast 498 573 39,000  Level Denver Center
11:17AM 37.1964 -109.8972 55° Northeast 498 573 39,000  Level Denver Center
11:18AM 37.2850 -109.7394 55° Northeast 495 570 39,000  Level Denver Center
11:19AM 37.3614 -109.6047 54° Northeast 494 568 39,000  Level Denver Center
11:20AM 37.4494 -109.4458 55° Northeast 496 571 39,000  Level Denver Center
11:21AM 37.5261 -109.3081 55° Northeast 501 577 39,000  Level Denver Center
11:22AM 37.6156 -109.1467 55° Northeast 502 578 39,000  Level Denver Center
11:23AM 37.7164 -108.9631 55° Northeast 497 572 39,000  Level Denver Center
11:24AM 37.7917 -108.8233 56° Northeast 501 577 39,000  Level Denver Center
11:25AM 37.8633 -108.6836 57° Northeast 496 571 39,100  Climbing Denver Center
11:26AM 37.9447 -108.5194 58° Northeast 494 568 39,000 -60 Descending Denver Center
11:27AM 38.0156 -108.3797 57° Northeast 491 565 39,000  Level Denver Center
11:28AM 38.0794 -108.2486 58° Northeast 493 567 39,000  Level Denver Center
11:29AM 38.1725 -108.0614 58° Northeast 491 565 39,000  Level Denver Center
11:30AM 38.2414 -107.9206 58° Northeast 489 563 39,000  Level Denver Center
11:31AM 38.3214 -107.7578 58° Northeast 487 560 39,000  Level Denver Center
11:32AM 38.3906 -107.6169 58° Northeast 489 563 39,000  Level Denver Center
11:33AM 38.4700 -107.4528 58° Northeast 489 563 39,000  Level Denver Center
11:34AM 38.5369 -107.3119 59° Northeast 487 560 39,000  Level Denver Center
11:35AM 38.6025 -107.1756 58° Northeast 489 563 39,000 -240 Level Denver Center
11:37AM 38.6886 -106.9969 58° Northeast 493 567 38,600 -1,080 Descending Denver Center
11:38AM 38.7600 -106.8489 58° Northeast 492 566 36,800 -1,980 Descending Denver Center
11:39AM 38.8164 -106.7278 59° Northeast 496 571 34,600 -2,820 Descending Denver Center
11:40AM 38.9119 -106.5253 59° Northeast 494 568 31,000 -2,760 Descending Denver Center
11:41AM 38.9794 -106.3833 59° Northeast 488 562 29,000 -1,920 Descending Denver Center
11:42AM 39.0436 -106.2456 59° Northeast 473 544 27,000 -1,980 Descending Denver Center
11:43AM 39.1058 -106.1086 60° Northeast 458 527 25,000 -1,920 Descending Denver Center
11:44AM 39.1814 -105.9478 59° Northeast 440 506 22,700 -2,040 Descending Denver Center
11:45AM 39.2531 -105.7917 59° Northeast 425 489 20,400 -1,980 Descending Denver Center
11:46AM 39.3106 -105.6667 59° Northeast 410 472 18,700 -1,320 Descending Denver Center
11:47AM 39.3656 -105.5453 60° Northeast 396 456 17,700 -1,020 Descending Denver Center
11:48AM 39.3981 -105.4094 73° East 360 414 16,600 -1,140 Descending Denver Center
11:49AM 39.4042 -105.2881 86° East 344 396 15,400 -1,260 Descending Denver Center
11:50AM 39.4100 -105.1611 87° East 334 384 14,100 -1,080 Descending Denver Center
11:51AM 39.4153 -105.0425 87° East 332 382 13,200 -840 Descending Denver Center
11:52AM 39.4294 -104.9136 82° East 339 390 12,400 -900 Descending Denver Center
11:53AM 39.4994 -104.8419 38° Northeast 333 383 11,400 -900 Descending Denver Center
11:54AM 39.5778 -104.7997 23° Northeast 304 350 10,600 -720 Descending Denver Center
11:56AM 39.6619 -104.7531 23° Northeast 249 287 9,800 -840 Descending Denver Center
11:57AM 39.7164 -104.7242 22° Northeast 211 243 8,800 -1,200 Descending Denver Center
11:58AM 39.7678 -104.6958 23° Northeast 192 221 7,400 -1,260 Descending Denver Center
11:59AM 39.8186 -104.6878 North 184 212 6,300 -960 Descending Denver Center
12:00PM 39.8603 -104.6878 360° North 144 166 5,500 -780 Descending Denver Center
12:02PM 39.8617 -104.6732 83° East  Level Estimated
12:09PM 39.8617 -104.6732 142° Southeast  Level Estimated
12:10PM 39.8617 -104.6732 142° Southeast  Level Estimated
12:11PM 39.8617 -104.6732 142° Southeast  Level Estimated